sensor_id;sensor_type;location;lat;lon;timestamp;temperature;humidity
20750;DHT22;10535;50.664;4.564;2022-08-23T00:02:07;17.90;99.90
20750;DHT22;10535;50.664;4.564;2022-08-23T00:04:38;17.90;99.90
20750;DHT22;10535;50.664;4.564;2022-08-23T00:07:06;17.90;99.90
20750;DHT22;10535;50.664;4.564;2022-08-23T00:09:33;17.80;99.90
20750;DHT22;10535;50.664;4.564;2022-08-23T00:12:04;17.90;99.90
20750;DHT22;10535;50.664;4.564;2022-08-23T00:14:35;17.80;99.90
20750;DHT22;10535;50.664;4.564;2022-08-23T00:17:00;17.90;99.90
20750;DHT22;10535;50.664;4.564;2022-08-23T00:19:27;17.80;99.90
20750;DHT22;10535;50.664;4.564;2022-08-23T00:21:54;17.80;99.90
20750;DHT22;10535;50.664;4.564;2022-08-23T00:24:22;17.70;99.90
20750;DHT22;10535;50.664;4.564;2022-08-23T00:26:56;17.70;99.90
20750;DHT22;10535;50.664;4.564;2022-08-23T00:29:33;17.70;99.90
20750;DHT22;10535;50.664;4.564;2022-08-23T00:32:00;17.70;99.90
20750;DHT22;10535;50.664;4.564;2022-08-23T00:34:27;17.60;99.90
20750;DHT22;10535;50.664;4.564;2022-08-23T00:36:53;17.70;99.90
20750;DHT22;10535;50.664;4.564;2022-08-23T00:39:19;17.60;99.90
20750;DHT22;10535;50.664;4.564;2022-08-23T00:41:47;17.50;99.90
20750;DHT22;10535;50.664;4.564;2022-08-23T00:44:33;17.60;99.90
20750;DHT22;10535;50.664;4.564;2022-08-23T00:47:22;17.40;99.90
20750;DHT22;10535;50.664;4.564;2022-08-23T00:55:28;17.30;99.90
20750;DHT22;10535;50.664;4.564;2022-08-23T00:57:53;17.30;99.90
20750;DHT22;10535;50.664;4.564;2022-08-23T01:00:20;17.30;99.90
20750;DHT22;10535;50.664;4.564;2022-08-23T01:02:47;17.40;99.90
20750;DHT22;10535;50.664;4.564;2022-08-23T01:05:14;17.30;99.90
20750;DHT22;10535;50.664;4.564;2022-08-23T01:07:52;17.20;99.90
20750;DHT22;10535;50.664;4.564;2022-08-23T01:10:30;17.20;99.90
20750;DHT22;10535;50.664;4.564;2022-08-23T01:13:03;17.20;99.90
20750;DHT22;10535;50.664;4.564;2022-08-23T01:15:55;17.10;99.90
20750;DHT22;10535;50.664;4.564;2022-08-23T01:18:23;17.10;99.90
20750;DHT22;10535;50.664;4.564;2022-08-23T01:20:57;17.20;99.90
20750;DHT22;10535;50.664;4.564;2022-08-23T01:23:46;17.20;99.90
20750;DHT22;10535;50.664;4.564;2022-08-23T01:26:15;17.10;99.90
20750;DHT22;10535;50.664;4.564;2022-08-23T01:28:42;17.20;99.90
20750;DHT22;10535;50.664;4.564;2022-08-23T01:31:09;17.10;99.90
20750;DHT22;10535;50.664;4.564;2022-08-23T01:33:36;17.00;99.90
20750;DHT22;10535;50.664;4.564;2022-08-23T01:36:04;17.10;99.90
20750;DHT22;10535;50.664;4.564;2022-08-23T01:38:30;17.00;99.90
20750;DHT22;10535;50.664;4.564;2022-08-23T01:40:55;17.00;99.90
20750;DHT22;10535;50.664;4.564;2022-08-23T01:43:22;16.90;99.90
20750;DHT22;10535;50.664;4.564;2022-08-23T01:45:49;17.00;99.90
20750;DHT22;10535;50.664;4.564;2022-08-23T01:48:16;16.80;99.90
20750;DHT22;10535;50.664;4.564;2022-08-23T01:50:42;16.80;99.90
20750;DHT22;10535;50.664;4.564;2022-08-23T01:53:08;16.80;99.90
20750;DHT22;10535;50.664;4.564;2022-08-23T01:55:37;16.80;99.90
20750;DHT22;10535;50.664;4.564;2022-08-23T01:58:05;16.80;99.90
20750;DHT22;10535;50.664;4.564;2022-08-23T02:00:35;16.80;99.90
20750;DHT22;10535;50.664;4.564;2022-08-23T02:03:01;16.70;99.90
20750;DHT22;10535;50.664;4.564;2022-08-23T02:05:28;16.70;99.90
20750;DHT22;10535;50.664;4.564;2022-08-23T02:07:54;16.70;99.90
20750;DHT22;10535;50.664;4.564;2022-08-23T02:10:20;16.70;99.90
20750;DHT22;10535;50.664;4.564;2022-08-23T02:12:46;16.50;99.90
20750;DHT22;10535;50.664;4.564;2022-08-23T02:15:13;16.60;99.90
20750;DHT22;10535;50.664;4.564;2022-08-23T02:17:39;16.60;99.90
20750;DHT22;10535;50.664;4.564;2022-08-23T02:20:05;16.70;99.90
20750;DHT22;10535;50.664;4.564;2022-08-23T02:22:32;16.60;99.90
20750;DHT22;10535;50.664;4.564;2022-08-23T02:24:58;16.70;99.90
20750;DHT22;10535;50.664;4.564;2022-08-23T02:27:24;16.60;99.90
20750;DHT22;10535;50.664;4.564;2022-08-23T02:29:50;16.50;99.90
20750;DHT22;10535;50.664;4.564;2022-08-23T02:32:17;16.50;99.90
20750;DHT22;10535;50.664;4.564;2022-08-23T02:34:44;16.50;99.90
20750;DHT22;10535;50.664;4.564;2022-08-23T02:37:12;16.40;99.90
20750;DHT22;10535;50.664;4.564;2022-08-23T02:39:39;16.40;99.90
20750;DHT22;10535;50.664;4.564;2022-08-23T02:42:06;16.40;99.90
20750;DHT22;10535;50.664;4.564;2022-08-23T02:44:31;16.40;99.90
20750;DHT22;10535;50.664;4.564;2022-08-23T02:46:59;16.40;99.90
20750;DHT22;10535;50.664;4.564;2022-08-23T02:49:26;16.50;99.90
20750;DHT22;10535;50.664;4.564;2022-08-23T02:51:52;16.60;99.90
20750;DHT22;10535;50.664;4.564;2022-08-23T02:54:18;16.50;99.90
20750;DHT22;10535;50.664;4.564;2022-08-23T02:56:43;16.40;99.90
20750;DHT22;10535;50.664;4.564;2022-08-23T02:59:09;16.40;99.90
20750;DHT22;10535;50.664;4.564;2022-08-23T03:01:37;16.40;99.90
20750;DHT22;10535;50.664;4.564;2022-08-23T03:04:04;16.40;99.90
20750;DHT22;10535;50.664;4.564;2022-08-23T03:06:30;16.30;99.90
20750;DHT22;10535;50.664;4.564;2022-08-23T03:08:56;16.20;99.90
20750;DHT22;10535;50.664;4.564;2022-08-23T03:11:23;16.10;99.90
20750;DHT22;10535;50.664;4.564;2022-08-23T03:13:51;16.20;99.90
20750;DHT22;10535;50.664;4.564;2022-08-23T03:16:17;16.20;99.90
20750;DHT22;10535;50.664;4.564;2022-08-23T03:18:44;16.10;99.90
20750;DHT22;10535;50.664;4.564;2022-08-23T03:21:10;16.10;99.90
20750;DHT22;10535;50.664;4.564;2022-08-23T03:23:37;16.10;99.90
20750;DHT22;10535;50.664;4.564;2022-08-23T03:26:06;16.20;99.90
20750;DHT22;10535;50.664;4.564;2022-08-23T03:28:33;16.20;99.90
20750;DHT22;10535;50.664;4.564;2022-08-23T03:31:00;16.10;99.90
20750;DHT22;10535;50.664;4.564;2022-08-23T03:33:26;16.20;99.90
20750;DHT22;10535;50.664;4.564;2022-08-23T03:35:51;16.20;99.90
20750;DHT22;10535;50.664;4.564;2022-08-23T03:38:17;16.20;99.90
20750;DHT22;10535;50.664;4.564;2022-08-23T03:40:44;16.30;99.90
20750;DHT22;10535;50.664;4.564;2022-08-23T03:43:10;16.40;99.90
20750;DHT22;10535;50.664;4.564;2022-08-23T03:45:36;16.40;99.90
20750;DHT22;10535;50.664;4.564;2022-08-23T03:48:02;16.40;99.90
20750;DHT22;10535;50.664;4.564;2022-08-23T03:50:28;16.60;99.90
20750;DHT22;10535;50.664;4.564;2022-08-23T03:52:54;16.60;99.90
20750;DHT22;10535;50.664;4.564;2022-08-23T03:55:21;16.70;99.90
20750;DHT22;10535;50.664;4.564;2022-08-23T03:57:46;16.80;99.90
20750;DHT22;10535;50.664;4.564;2022-08-23T04:00:14;16.90;99.90
20750;DHT22;10535;50.664;4.564;2022-08-23T04:02:39;17.00;99.90
20750;DHT22;10535;50.664;4.564;2022-08-23T04:05:06;16.90;99.90
20750;DHT22;10535;50.664;4.564;2022-08-23T04:07:36;16.90;99.90
20750;DHT22;10535;50.664;4.564;2022-08-23T04:10:05;16.90;99.90
20750;DHT22;10535;50.664;4.564;2022-08-23T04:12:31;16.90;99.90
20750;DHT22;10535;50.664;4.564;2022-08-23T04:14:57;16.80;99.90
20750;DHT22;10535;50.664;4.564;2022-08-23T04:17:23;16.90;99.90
20750;DHT22;10535;50.664;4.564;2022-08-23T04:19:50;17.00;99.90
20750;DHT22;10535;50.664;4.564;2022-08-23T04:22:18;16.90;99.90
20750;DHT22;10535;50.664;4.564;2022-08-23T04:24:45;16.80;99.90
20750;DHT22;10535;50.664;4.564;2022-08-23T04:27:11;16.80;99.90
20750;DHT22;10535;50.664;4.564;2022-08-23T04:29:37;16.90;99.90
20750;DHT22;10535;50.664;4.564;2022-08-23T04:32:06;16.70;99.90
20750;DHT22;10535;50.664;4.564;2022-08-23T04:34:33;16.70;99.90
20750;DHT22;10535;50.664;4.564;2022-08-23T04:36:59;16.70;99.90
20750;DHT22;10535;50.664;4.564;2022-08-23T04:39:26;16.60;99.90
20750;DHT22;10535;50.664;4.564;2022-08-23T04:41:51;16.60;99.90
20750;DHT22;10535;50.664;4.564;2022-08-23T04:44:36;16.60;99.90
20750;DHT22;10535;50.664;4.564;2022-08-23T04:47:02;16.60;99.90
20750;DHT22;10535;50.664;4.564;2022-08-23T04:49:27;16.50;99.90
20750;DHT22;10535;50.664;4.564;2022-08-23T04:51:53;16.40;99.90
20750;DHT22;10535;50.664;4.564;2022-08-23T04:54:19;16.40;99.90
20750;DHT22;10535;50.664;4.564;2022-08-23T04:56:45;16.40;99.90
20750;DHT22;10535;50.664;4.564;2022-08-23T04:59:11;16.50;99.90
20750;DHT22;10535;50.664;4.564;2022-08-23T05:01:36;16.40;99.90
20750;DHT22;10535;50.664;4.564;2022-08-23T05:04:03;16.40;99.90
20750;DHT22;10535;50.664;4.564;2022-08-23T05:06:29;16.40;99.90
20750;DHT22;10535;50.664;4.564;2022-08-23T05:08:56;16.50;99.90
20750;DHT22;10535;50.664;4.564;2022-08-23T05:11:23;16.50;99.90
20750;DHT22;10535;50.664;4.564;2022-08-23T05:13:49;16.50;99.90
20750;DHT22;10535;50.664;4.564;2022-08-23T05:16:15;16.50;99.90
20750;DHT22;10535;50.664;4.564;2022-08-23T05:18:41;16.60;99.90
20750;DHT22;10535;50.664;4.564;2022-08-23T05:21:07;16.60;99.90
20750;DHT22;10535;50.664;4.564;2022-08-23T05:23:37;16.60;99.90
20750;DHT22;10535;50.664;4.564;2022-08-23T05:26:03;16.60;99.90
20750;DHT22;10535;50.664;4.564;2022-08-23T05:28:33;16.70;99.90
20750;DHT22;10535;50.664;4.564;2022-08-23T05:31:11;16.80;99.90
20750;DHT22;10535;50.664;4.564;2022-08-23T05:33:39;17.00;99.90
20750;DHT22;10535;50.664;4.564;2022-08-23T05:36:06;17.10;99.90
20750;DHT22;10535;50.664;4.564;2022-08-23T05:38:32;17.20;99.90
20750;DHT22;10535;50.664;4.564;2022-08-23T05:40:59;17.30;99.90
20750;DHT22;10535;50.664;4.564;2022-08-23T05:43:27;17.40;99.90
20750;DHT22;10535;50.664;4.564;2022-08-23T05:46:09;17.50;99.90
20750;DHT22;10535;50.664;4.564;2022-08-23T05:48:36;17.60;99.90
20750;DHT22;10535;50.664;4.564;2022-08-23T05:51:09;17.70;99.90
20750;DHT22;10535;50.664;4.564;2022-08-23T05:53:36;17.80;99.90
20750;DHT22;10535;50.664;4.564;2022-08-23T05:56:18;18.00;99.90
20750;DHT22;10535;50.664;4.564;2022-08-23T05:58:44;18.00;99.90
20750;DHT22;10535;50.664;4.564;2022-08-23T06:01:11;18.00;99.90
20750;DHT22;10535;50.664;4.564;2022-08-23T06:03:38;18.20;99.90
20750;DHT22;10535;50.664;4.564;2022-08-23T06:06:05;18.20;99.90
20750;DHT22;10535;50.664;4.564;2022-08-23T06:08:32;18.50;99.90
20750;DHT22;10535;50.664;4.564;2022-08-23T06:11:03;18.60;99.90
20750;DHT22;10535;50.664;4.564;2022-08-23T06:13:29;18.70;99.90
20750;DHT22;10535;50.664;4.564;2022-08-23T06:15:56;18.80;99.90
20750;DHT22;10535;50.664;4.564;2022-08-23T06:18:45;18.90;99.90
20750;DHT22;10535;50.664;4.564;2022-08-23T06:21:33;19.10;99.90
20750;DHT22;10535;50.664;4.564;2022-08-23T06:24:03;19.30;99.90
20750;DHT22;10535;50.664;4.564;2022-08-23T06:26:45;19.50;99.90
20750;DHT22;10535;50.664;4.564;2022-08-23T06:29:15;19.60;99.90
20750;DHT22;10535;50.664;4.564;2022-08-23T06:31:44;19.50;99.90
20750;DHT22;10535;50.664;4.564;2022-08-23T06:34:34;19.70;99.90
20750;DHT22;10535;50.664;4.564;2022-08-23T06:37:08;20.10;99.90
20750;DHT22;10535;50.664;4.564;2022-08-23T06:39:34;20.60;99.90
20750;DHT22;10535;50.664;4.564;2022-08-23T06:42:10;20.80;99.90
20750;DHT22;10535;50.664;4.564;2022-08-23T06:44:36;21.40;99.90
20750;DHT22;10535;50.664;4.564;2022-08-23T06:47:04;22.00;99.90
20750;DHT22;10535;50.664;4.564;2022-08-23T06:49:30;22.60;99.90
20750;DHT22;10535;50.664;4.564;2022-08-23T06:51:59;23.20;99.90
20750;DHT22;10535;50.664;4.564;2022-08-23T06:54:27;23.70;99.90
20750;DHT22;10535;50.664;4.564;2022-08-23T06:56:53;23.90;99.90
20750;DHT22;10535;50.664;4.564;2022-08-23T06:59:20;24.00;99.90
20750;DHT22;10535;50.664;4.564;2022-08-23T07:04:36;24.30;99.90
20750;DHT22;10535;50.664;4.564;2022-08-23T07:07:03;24.80;99.90
20750;DHT22;10535;50.664;4.564;2022-08-23T07:09:30;25.30;99.90
20750;DHT22;10535;50.664;4.564;2022-08-23T07:11:56;25.50;99.90
20750;DHT22;10535;50.664;4.564;2022-08-23T07:14:23;26.00;99.90
20750;DHT22;10535;50.664;4.564;2022-08-23T07:16:53;26.10;99.90
20750;DHT22;10535;50.664;4.564;2022-08-23T07:19:23;25.60;99.90
20750;DHT22;10535;50.664;4.564;2022-08-23T07:21:49;25.40;99.90
20750;DHT22;10535;50.664;4.564;2022-08-23T07:24:16;25.10;99.90
20750;DHT22;10535;50.664;4.564;2022-08-23T07:26:43;24.80;99.90
20750;DHT22;10535;50.664;4.564;2022-08-23T07:29:12;24.50;99.90
20750;DHT22;10535;50.664;4.564;2022-08-23T07:31:40;24.50;99.90
20750;DHT22;10535;50.664;4.564;2022-08-23T07:34:07;24.40;99.90
20750;DHT22;10535;50.664;4.564;2022-08-23T07:36:34;24.50;99.90
20750;DHT22;10535;50.664;4.564;2022-08-23T07:39:00;24.40;99.90
20750;DHT22;10535;50.664;4.564;2022-08-23T07:41:29;24.30;99.90
20750;DHT22;10535;50.664;4.564;2022-08-23T07:43:59;24.30;99.90
20750;DHT22;10535;50.664;4.564;2022-08-23T07:46:29;24.40;99.90
20750;DHT22;10535;50.664;4.564;2022-08-23T07:48:56;24.60;99.90
20750;DHT22;10535;50.664;4.564;2022-08-23T07:51:23;24.50;99.90
20750;DHT22;10535;50.664;4.564;2022-08-23T07:53:49;24.50;99.90
20750;DHT22;10535;50.664;4.564;2022-08-23T07:56:16;24.70;99.90
20750;DHT22;10535;50.664;4.564;2022-08-23T07:58:42;24.80;99.90
20750;DHT22;10535;50.664;4.564;2022-08-23T08:03:39;24.60;99.90
20750;DHT22;10535;50.664;4.564;2022-08-23T08:06:10;24.70;99.90
20750;DHT22;10535;50.664;4.564;2022-08-23T08:08:37;24.90;99.90
20750;DHT22;10535;50.664;4.564;2022-08-23T08:11:05;25.00;99.90
20750;DHT22;10535;50.664;4.564;2022-08-23T08:13:31;25.20;99.90
20750;DHT22;10535;50.664;4.564;2022-08-23T08:15:56;25.30;99.90
20750;DHT22;10535;50.664;4.564;2022-08-23T08:18:22;25.30;99.90
20750;DHT22;10535;50.664;4.564;2022-08-23T08:20:48;25.50;99.90
20750;DHT22;10535;50.664;4.564;2022-08-23T08:23:13;25.70;99.90
20750;DHT22;10535;50.664;4.564;2022-08-23T08:25:39;25.80;99.90
20750;DHT22;10535;50.664;4.564;2022-08-23T08:28:05;25.70;99.90
20750;DHT22;10535;50.664;4.564;2022-08-23T08:30:30;25.70;99.90
20750;DHT22;10535;50.664;4.564;2022-08-23T08:32:56;26.00;99.90
20750;DHT22;10535;50.664;4.564;2022-08-23T08:35:22;26.10;99.90
20750;DHT22;10535;50.664;4.564;2022-08-23T08:37:48;26.30;99.90
20750;DHT22;10535;50.664;4.564;2022-08-23T08:40:19;26.20;99.90
20750;DHT22;10535;50.664;4.564;2022-08-23T08:45:58;26.20;99.90
20750;DHT22;10535;50.664;4.564;2022-08-23T08:48:30;26.10;99.90
20750;DHT22;10535;50.664;4.564;2022-08-23T08:51:12;26.30;99.90
20750;DHT22;10535;50.664;4.564;2022-08-23T08:53:44;26.50;99.90
20750;DHT22;10535;50.664;4.564;2022-08-23T08:56:33;26.60;99.90
20750;DHT22;10535;50.664;4.564;2022-08-23T08:59:05;26.60;99.90
20750;DHT22;10535;50.664;4.564;2022-08-23T09:01:34;26.90;99.90
20750;DHT22;10535;50.664;4.564;2022-08-23T09:04:01;27.10;99.90
20750;DHT22;10535;50.664;4.564;2022-08-23T09:06:31;27.30;99.90
20750;DHT22;10535;50.664;4.564;2022-08-23T09:14:46;27.80;99.90
20750;DHT22;10535;50.664;4.564;2022-08-23T09:19:48;27.70;99.90
20750;DHT22;10535;50.664;4.564;2022-08-23T09:22:20;28.00;99.90
20750;DHT22;10535;50.664;4.564;2022-08-23T09:24:50;28.30;99.90
20750;DHT22;10535;50.664;4.564;2022-08-23T09:27:16;28.40;99.90
20750;DHT22;10535;50.664;4.564;2022-08-23T09:29:53;28.50;99.90
20750;DHT22;10535;50.664;4.564;2022-08-23T09:32:35;28.40;99.90
20750;DHT22;10535;50.664;4.564;2022-08-23T09:35:21;28.40;99.90
20750;DHT22;10535;50.664;4.564;2022-08-23T09:40:43;28.30;99.90
20750;DHT22;10535;50.664;4.564;2022-08-23T09:43:13;28.30;99.90
20750;DHT22;10535;50.664;4.564;2022-08-23T09:48:37;28.10;99.90
20750;DHT22;10535;50.664;4.564;2022-08-23T09:53:49;27.90;99.90
20750;DHT22;10535;50.664;4.564;2022-08-23T09:56:23;27.90;99.90
20750;DHT22;10535;50.664;4.564;2022-08-23T09:58:50;28.00;99.90
20750;DHT22;10535;50.664;4.564;2022-08-23T10:01:27;28.40;99.90
20750;DHT22;10535;50.664;4.564;2022-08-23T10:04:07;28.50;99.90
20750;DHT22;10535;50.664;4.564;2022-08-23T10:06:33;28.80;99.90
20750;DHT22;10535;50.664;4.564;2022-08-23T10:08:59;28.90;99.90
20750;DHT22;10535;50.664;4.564;2022-08-23T10:11:35;29.00;99.90
20750;DHT22;10535;50.664;4.564;2022-08-23T10:14:02;28.80;99.90
20750;DHT22;10535;50.664;4.564;2022-08-23T10:19:21;28.50;99.90
20750;DHT22;10535;50.664;4.564;2022-08-23T10:30:17;28.30;99.90
20750;DHT22;10535;50.664;4.564;2022-08-23T10:40:51;28.80;99.90
20750;DHT22;10535;50.664;4.564;2022-08-23T10:43:38;29.00;99.90
20750;DHT22;10535;50.664;4.564;2022-08-23T10:46:07;28.80;99.90
20750;DHT22;10535;50.664;4.564;2022-08-23T10:48:55;28.70;99.90
20750;DHT22;10535;50.664;4.564;2022-08-23T10:51:35;28.60;99.90
20750;DHT22;10535;50.664;4.564;2022-08-23T10:54:28;28.60;99.90
20750;DHT22;10535;50.664;4.564;2022-08-23T10:57:01;28.70;99.90
20750;DHT22;10535;50.664;4.564;2022-08-23T10:59:29;28.80;99.90
20750;DHT22;10535;50.664;4.564;2022-08-23T11:02:13;29.10;99.90
20750;DHT22;10535;50.664;4.564;2022-08-23T11:05:22;29.20;99.90
20750;DHT22;10535;50.664;4.564;2022-08-23T11:08:08;29.60;99.90
20750;DHT22;10535;50.664;4.564;2022-08-23T11:15:44;29.90;99.90
20750;DHT22;10535;50.664;4.564;2022-08-23T11:21:09;29.90;99.90
20750;DHT22;10535;50.664;4.564;2022-08-23T11:23:54;29.70;99.90
20750;DHT22;10535;50.664;4.564;2022-08-23T11:34:17;29.50;99.90
20750;DHT22;10535;50.664;4.564;2022-08-23T11:48:10;28.90;99.90
20750;DHT22;10535;50.664;4.564;2022-08-23T11:56:36;28.80;99.90
20750;DHT22;10535;50.664;4.564;2022-08-23T12:01:41;29.10;99.90
20750;DHT22;10535;50.664;4.564;2022-08-23T12:04:35;29.40;99.90
20750;DHT22;10535;50.664;4.564;2022-08-23T12:07:03;29.30;99.90
20750;DHT22;10535;50.664;4.564;2022-08-23T12:19:47;29.40;99.90
20750;DHT22;10535;50.664;4.564;2022-08-23T12:22:19;29.60;99.90
20750;DHT22;10535;50.664;4.564;2022-08-23T12:25:05;30.00;99.90
20750;DHT22;10535;50.664;4.564;2022-08-23T12:30:21;30.10;99.90
20750;DHT22;10535;50.664;4.564;2022-08-23T12:38:30;30.00;99.90
20750;DHT22;10535;50.664;4.564;2022-08-23T12:41:21;30.30;99.90
20750;DHT22;10535;50.664;4.564;2022-08-23T12:44:04;30.60;99.90
20750;DHT22;10535;50.664;4.564;2022-08-23T12:48:59;31.10;99.90
20750;DHT22;10535;50.664;4.564;2022-08-23T12:51:26;31.20;99.90
20750;DHT22;10535;50.664;4.564;2022-08-23T12:53:51;31.50;99.90
20750;DHT22;10535;50.664;4.564;2022-08-23T12:56:24;31.40;99.90
20750;DHT22;10535;50.664;4.564;2022-08-23T12:58:54;31.10;99.90
20750;DHT22;10535;50.664;4.564;2022-08-23T13:01:26;30.90;99.90
20750;DHT22;10535;50.664;4.564;2022-08-23T13:04:19;30.90;99.90
20750;DHT22;10535;50.664;4.564;2022-08-23T13:06:50;30.70;99.90
20750;DHT22;10535;50.664;4.564;2022-08-23T13:09:30;30.60;99.90
20750;DHT22;10535;50.664;4.564;2022-08-23T13:11:58;30.60;99.90
20750;DHT22;10535;50.664;4.564;2022-08-23T13:19:46;31.00;99.90
20750;DHT22;10535;50.664;4.564;2022-08-23T13:24:43;31.10;99.90
20750;DHT22;10535;50.664;4.564;2022-08-23T13:27:21;30.90;99.90
20750;DHT22;10535;50.664;4.564;2022-08-23T13:43:08;30.30;99.90
20750;DHT22;10535;50.664;4.564;2022-08-23T13:45:47;30.20;99.90
20750;DHT22;10535;50.664;4.564;2022-08-23T13:48:19;30.40;99.90
20750;DHT22;10535;50.664;4.564;2022-08-23T13:50:47;30.40;99.90
20750;DHT22;10535;50.664;4.564;2022-08-23T13:53:13;30.00;99.90
20750;DHT22;10535;50.664;4.564;2022-08-23T13:55:45;30.00;99.90
20750;DHT22;10535;50.664;4.564;2022-08-23T13:58:29;30.20;99.90
20750;DHT22;10535;50.664;4.564;2022-08-23T14:00:56;29.90;99.90
20750;DHT22;10535;50.664;4.564;2022-08-23T14:03:23;29.60;99.90
20750;DHT22;10535;50.664;4.564;2022-08-23T14:05:49;29.70;99.90
20750;DHT22;10535;50.664;4.564;2022-08-23T14:08:14;29.90;99.90
20750;DHT22;10535;50.664;4.564;2022-08-23T14:10:40;30.00;99.90
20750;DHT22;10535;50.664;4.564;2022-08-23T14:13:07;30.30;99.90
20750;DHT22;10535;50.664;4.564;2022-08-23T14:15:35;30.40;99.90
20750;DHT22;10535;50.664;4.564;2022-08-23T14:18:01;30.50;99.90
20750;DHT22;10535;50.664;4.564;2022-08-23T14:20:29;30.50;99.90
20750;DHT22;10535;50.664;4.564;2022-08-23T14:22:54;30.60;99.90
20750;DHT22;10535;50.664;4.564;2022-08-23T14:25:20;30.50;99.90
20750;DHT22;10535;50.664;4.564;2022-08-23T14:27:47;30.10;99.90
20750;DHT22;10535;50.664;4.564;2022-08-23T14:30:33;30.00;99.90
20750;DHT22;10535;50.664;4.564;2022-08-23T14:33:01;30.00;99.90
20750;DHT22;10535;50.664;4.564;2022-08-23T14:35:27;30.30;99.90
20750;DHT22;10535;50.664;4.564;2022-08-23T14:37:53;30.30;99.90
20750;DHT22;10535;50.664;4.564;2022-08-23T14:40:19;30.50;99.90
20750;DHT22;10535;50.664;4.564;2022-08-23T14:42:45;30.70;99.90
20750;DHT22;10535;50.664;4.564;2022-08-23T14:45:12;30.40;99.90
20750;DHT22;10535;50.664;4.564;2022-08-23T14:47:38;30.30;99.90
20750;DHT22;10535;50.664;4.564;2022-08-23T14:50:06;30.30;99.90
20750;DHT22;10535;50.664;4.564;2022-08-23T14:52:32;30.40;99.90
20750;DHT22;10535;50.664;4.564;2022-08-23T14:54:58;30.40;99.90
20750;DHT22;10535;50.664;4.564;2022-08-23T14:57:23;30.40;99.90
20750;DHT22;10535;50.664;4.564;2022-08-23T14:59:49;30.50;99.90
20750;DHT22;10535;50.664;4.564;2022-08-23T15:02:19;30.40;99.90
20750;DHT22;10535;50.664;4.564;2022-08-23T15:04:47;30.60;99.90
20750;DHT22;10535;50.664;4.564;2022-08-23T15:07:12;30.50;99.90
20750;DHT22;10535;50.664;4.564;2022-08-23T15:09:39;30.60;99.90
20750;DHT22;10535;50.664;4.564;2022-08-23T15:12:06;30.70;99.90
20750;DHT22;10535;50.664;4.564;2022-08-23T15:14:32;30.80;99.90
20750;DHT22;10535;50.664;4.564;2022-08-23T15:16:59;30.80;99.90
20750;DHT22;10535;50.664;4.564;2022-08-23T15:19:25;30.40;99.90
20750;DHT22;10535;50.664;4.564;2022-08-23T15:21:50;30.30;99.90
20750;DHT22;10535;50.664;4.564;2022-08-23T15:24:16;30.30;99.90
20750;DHT22;10535;50.664;4.564;2022-08-23T15:26:42;30.40;99.90
20750;DHT22;10535;50.664;4.564;2022-08-23T15:29:07;30.40;99.90
20750;DHT22;10535;50.664;4.564;2022-08-23T15:31:33;30.50;99.90
20750;DHT22;10535;50.664;4.564;2022-08-23T15:33:59;30.60;99.90
20750;DHT22;10535;50.664;4.564;2022-08-23T15:36:25;30.60;99.90
20750;DHT22;10535;50.664;4.564;2022-08-23T15:38:52;30.70;99.90
20750;DHT22;10535;50.664;4.564;2022-08-23T15:41:18;30.70;99.90
20750;DHT22;10535;50.664;4.564;2022-08-23T15:43:45;30.60;99.90
20750;DHT22;10535;50.664;4.564;2022-08-23T15:46:16;30.50;99.90
20750;DHT22;10535;50.664;4.564;2022-08-23T15:48:45;30.30;99.90
20750;DHT22;10535;50.664;4.564;2022-08-23T15:51:13;30.00;99.90
20750;DHT22;10535;50.664;4.564;2022-08-23T15:53:39;30.10;99.90
20750;DHT22;10535;50.664;4.564;2022-08-23T15:56:15;30.20;99.90
20750;DHT22;10535;50.664;4.564;2022-08-23T15:58:42;30.00;99.90
20750;DHT22;10535;50.664;4.564;2022-08-23T16:01:09;29.80;99.90
20750;DHT22;10535;50.664;4.564;2022-08-23T16:03:36;29.70;99.90
20750;DHT22;10535;50.664;4.564;2022-08-23T16:06:03;29.80;99.90
20750;DHT22;10535;50.664;4.564;2022-08-23T16:08:34;29.90;99.90
20750;DHT22;10535;50.664;4.564;2022-08-23T16:11:01;29.90;99.90
20750;DHT22;10535;50.664;4.564;2022-08-23T16:13:29;30.00;99.90
20750;DHT22;10535;50.664;4.564;2022-08-23T16:15:56;30.10;99.90
20750;DHT22;10535;50.664;4.564;2022-08-23T16:18:22;29.90;99.90
20750;DHT22;10535;50.664;4.564;2022-08-23T16:20:47;29.90;99.90
20750;DHT22;10535;50.664;4.564;2022-08-23T16:23:13;29.80;99.90
20750;DHT22;10535;50.664;4.564;2022-08-23T16:25:40;29.70;99.90
20750;DHT22;10535;50.664;4.564;2022-08-23T16:28:06;29.80;99.90
20750;DHT22;10535;50.664;4.564;2022-08-23T16:30:33;29.80;99.90
20750;DHT22;10535;50.664;4.564;2022-08-23T16:32:59;29.60;99.90
20750;DHT22;10535;50.664;4.564;2022-08-23T16:35:25;29.70;99.90
20750;DHT22;10535;50.664;4.564;2022-08-23T16:37:51;29.60;99.90
20750;DHT22;10535;50.664;4.564;2022-08-23T16:40:19;29.80;99.90
20750;DHT22;10535;50.664;4.564;2022-08-23T16:42:44;29.90;99.90
20750;DHT22;10535;50.664;4.564;2022-08-23T16:45:10;30.10;99.90
20750;DHT22;10535;50.664;4.564;2022-08-23T16:47:41;30.20;99.90
20750;DHT22;10535;50.664;4.564;2022-08-23T16:50:09;30.20;99.90
20750;DHT22;10535;50.664;4.564;2022-08-23T16:52:34;30.20;99.90
20750;DHT22;10535;50.664;4.564;2022-08-23T16:55:03;30.20;99.90
20750;DHT22;10535;50.664;4.564;2022-08-23T16:57:29;30.10;99.90
20750;DHT22;10535;50.664;4.564;2022-08-23T16:59:55;30.00;99.90
20750;DHT22;10535;50.664;4.564;2022-08-23T17:02:29;30.00;99.90
20750;DHT22;10535;50.664;4.564;2022-08-23T17:04:56;30.00;99.90
20750;DHT22;10535;50.664;4.564;2022-08-23T17:07:22;29.90;99.90
20750;DHT22;10535;50.664;4.564;2022-08-23T17:09:48;29.80;99.90
20750;DHT22;10535;50.664;4.564;2022-08-23T17:12:15;29.70;99.90
20750;DHT22;10535;50.664;4.564;2022-08-23T17:14:42;29.60;99.90
20750;DHT22;10535;50.664;4.564;2022-08-23T17:17:09;29.50;99.90
20750;DHT22;10535;50.664;4.564;2022-08-23T17:19:35;29.40;99.90
20750;DHT22;10535;50.664;4.564;2022-08-23T17:22:01;29.10;99.90
20750;DHT22;10535;50.664;4.564;2022-08-23T17:24:27;29.10;99.90
20750;DHT22;10535;50.664;4.564;2022-08-23T17:26:52;28.90;99.90
20750;DHT22;10535;50.664;4.564;2022-08-23T17:29:18;28.90;99.90
20750;DHT22;10535;50.664;4.564;2022-08-23T17:31:44;28.80;99.90
20750;DHT22;10535;50.664;4.564;2022-08-23T17:34:09;28.60;99.90
20750;DHT22;10535;50.664;4.564;2022-08-23T17:36:40;28.50;99.90
20750;DHT22;10535;50.664;4.564;2022-08-23T17:39:09;28.50;99.90
20750;DHT22;10535;50.664;4.564;2022-08-23T17:41:35;28.50;99.90
20750;DHT22;10535;50.664;4.564;2022-08-23T17:44:03;28.50;99.90
20750;DHT22;10535;50.664;4.564;2022-08-23T17:46:29;28.50;99.90
20750;DHT22;10535;50.664;4.564;2022-08-23T17:48:55;28.50;99.90
20750;DHT22;10535;50.664;4.564;2022-08-23T17:51:22;28.40;99.90